createdAt,value
2019-03-23T00:00:13.278Z,9.07
2019-03-23T00:02:42.618Z,9.04
2019-03-23T00:05:12.819Z,8.70
2019-03-23T00:07:42.434Z,8.58
2019-03-23T00:10:11.909Z,8.67
2019-03-23T00:12:41.476Z,8.53
2019-03-23T00:15:11.769Z,8.53
2019-03-23T00:17:41.138Z,8.37
2019-03-23T00:20:10.634Z,8.29
2019-03-23T00:22:40.031Z,8.42
2019-03-23T00:25:09.452Z,8.26
2019-03-23T00:27:39.071Z,8.23
2019-03-23T00:30:11.166Z,8.23
2019-03-23T00:32:40.632Z,8.26
2019-03-23T00:35:10.769Z,8.14
2019-03-23T00:37:40.086Z,8.12
2019-03-23T00:40:10.604Z,8.13
2019-03-23T00:42:40.165Z,8.11
2019-03-23T00:45:10.593Z,8.02
2019-03-23T00:47:39.894Z,7.97
2019-03-23T00:50:10.236Z,8.09
2019-03-23T00:52:39.591Z,8.02
2019-03-23T00:55:10.046Z,7.98
2019-03-23T00:57:39.339Z,8.01
2019-03-23T01:00:11.365Z,7.76
2019-03-23T01:02:41.927Z,7.62
2019-03-23T01:05:12.379Z,7.85
2019-03-23T01:07:41.663Z,7.80
2019-03-23T01:10:12.400Z,7.83
2019-03-23T01:12:41.784Z,7.76
2019-03-23T01:15:12.951Z,7.61
2019-03-23T01:17:42.400Z,7.67
2019-03-23T01:20:13.748Z,7.72
2019-03-23T01:22:43.091Z,7.74
2019-03-23T01:25:12.545Z,7.74
2019-03-23T01:27:41.814Z,7.73
2019-03-23T01:30:15.425Z,7.86
2019-03-23T01:32:44.701Z,7.82
2019-03-23T01:35:14.088Z,7.95
2019-03-23T01:37:43.402Z,8.22
2019-03-23T01:40:13.227Z,8.52
2019-03-23T01:42:42.602Z,8.56
2019-03-23T01:45:13.446Z,8.66
2019-03-23T01:47:42.840Z,8.62
2019-03-23T01:50:12.854Z,8.84
2019-03-23T01:52:42.550Z,8.84
2019-03-23T01:55:12.469Z,8.89
2019-03-23T01:57:41.778Z,8.86
2019-03-23T02:00:13.493Z,8.93
2019-03-23T02:02:43.062Z,8.74
2019-03-23T02:05:13.057Z,8.74
2019-03-23T02:07:42.357Z,8.77
2019-03-23T02:10:12.789Z,8.65
2019-03-23T02:12:42.162Z,8.18
2019-03-23T02:15:12.789Z,7.97
2019-03-23T02:17:42.113Z,7.97
2019-03-23T02:20:13.442Z,7.82
2019-03-23T02:22:42.755Z,7.51
2019-03-23T02:25:12.454Z,7.32
2019-03-23T02:27:41.774Z,7.49
2019-03-23T02:30:13.107Z,7.39
2019-03-23T02:32:42.450Z,7.17
2019-03-23T02:35:12.106Z,7.25
2019-03-23T02:37:41.396Z,7.13
2019-03-23T02:40:11.741Z,6.84
2019-03-23T02:42:41.150Z,6.90
2019-03-23T02:45:12.490Z,7.10
2019-03-23T02:47:41.789Z,7.21
2019-03-23T02:50:11.332Z,7.21
2019-03-23T02:52:40.645Z,6.97
2019-03-23T02:55:11.064Z,6.84
2019-03-23T02:57:40.447Z,6.84
2019-03-23T03:00:15.396Z,6.85
2019-03-23T03:02:44.700Z,6.85
2019-03-23T03:05:14.420Z,6.85
2019-03-23T03:07:44.162Z,6.69
2019-03-23T03:10:16.919Z,6.69
2019-03-23T03:12:46.226Z,6.75
2019-03-23T03:15:15.866Z,6.65
2019-03-23T03:17:45.171Z,6.65
2019-03-23T03:20:14.549Z,6.30
2019-03-23T03:22:43.852Z,6.30
2019-03-23T03:25:13.426Z,6.20
2019-03-23T03:27:42.720Z,6.23
2019-03-23T03:30:12.781Z,6.42
2019-03-23T03:32:42.085Z,6.44
2019-03-23T03:35:11.945Z,6.61
2019-03-23T03:37:55.362Z,6.46
2019-03-23T03:40:12.516Z,6.81
2019-03-23T03:42:41.983Z,7.07
2019-03-23T03:45:23.468Z,7.15
2019-03-23T03:47:53.227Z,7.15
2019-03-23T03:50:22.593Z,7.29
2019-03-23T03:52:51.925Z,7.27
2019-03-23T03:55:21.472Z,7.20
2019-03-23T03:57:50.795Z,7.36
2019-03-23T04:00:20.460Z,7.20
2019-03-23T04:02:49.766Z,7.13
2019-03-23T04:05:19.130Z,7.13
2019-03-23T04:07:48.444Z,7.37
2019-03-23T04:10:17.895Z,7.37
2019-03-23T04:12:47.217Z,7.46
2019-03-23T04:15:16.506Z,7.36
2019-03-23T04:17:45.825Z,6.87
2019-03-23T04:20:15.233Z,6.40
2019-03-23T04:22:44.590Z,6.40
2019-03-23T04:25:13.954Z,6.54
2019-03-23T04:27:43.503Z,6.50
2019-03-23T04:30:13.529Z,6.50
2019-03-23T04:32:42.848Z,6.55
2019-03-23T04:35:12.620Z,6.54
2019-03-23T04:37:41.941Z,6.71
2019-03-23T04:40:12.405Z,6.84
2019-03-23T04:42:41.991Z,6.93
2019-03-23T04:45:12.186Z,6.93
2019-03-23T04:47:41.506Z,7.14
2019-03-23T04:50:12.877Z,7.14
2019-03-23T04:52:42.198Z,7.10
2019-03-23T04:55:13.033Z,7.10
2019-03-23T04:57:42.803Z,7.12
2019-03-23T05:00:20.272Z,7.15
2019-03-23T05:02:49.599Z,7.02
2019-03-23T05:05:18.910Z,7.18
2019-03-23T05:07:48.233Z,7.18
2019-03-23T05:10:17.534Z,7.08
2019-03-23T05:12:46.856Z,7.05
2019-03-23T05:15:16.261Z,7.05
2019-03-23T05:17:45.689Z,6.97
2019-03-23T05:20:33.433Z,6.91
2019-03-23T05:23:02.731Z,6.96
2019-03-23T05:25:32.120Z,6.91
2019-03-23T05:28:01.455Z,6.91
2019-03-23T05:30:30.752Z,6.90
2019-03-23T05:33:00.076Z,6.90
2019-03-23T05:35:29.399Z,6.97
2019-03-23T05:37:58.720Z,6.99
2019-03-23T05:40:28.018Z,7.15
2019-03-23T05:42:57.414Z,7.15
2019-03-23T05:45:26.718Z,7.20
2019-03-23T05:47:56.045Z,7.20
2019-03-23T05:50:25.347Z,7.18
2019-03-23T05:52:54.688Z,7.23
2019-03-23T05:55:24.007Z,7.23
2019-03-23T05:57:53.338Z,7.09
2019-03-23T06:00:22.658Z,7.14
2019-03-23T06:02:51.996Z,7.15
2019-03-23T06:05:21.320Z,7.15
2019-03-23T06:07:50.724Z,7.12
2019-03-23T06:10:20.018Z,7.12
2019-03-23T06:12:49.311Z,7.23
2019-03-23T06:15:19.030Z,7.23
2019-03-23T06:17:48.336Z,7.27
2019-03-23T06:20:17.970Z,7.31
2019-03-23T06:22:47.569Z,7.31
2019-03-23T06:25:17.093Z,7.35
2019-03-23T06:27:46.392Z,7.35
2019-03-23T06:30:15.864Z,7.35
2019-03-23T06:32:45.638Z,7.51
2019-03-23T06:35:14.958Z,7.51
2019-03-23T06:37:44.267Z,7.54
2019-03-23T06:40:14.049Z,7.48
2019-03-23T06:42:43.342Z,7.48
2019-03-23T06:45:14.515Z,7.45
2019-03-23T06:47:43.846Z,7.48
2019-03-23T06:50:13.556Z,7.48
2019-03-23T06:52:42.861Z,7.50
2019-03-23T06:55:12.722Z,7.50
2019-03-23T06:57:42.162Z,7.43
2019-03-23T07:00:16.634Z,7.64
2019-03-23T07:02:46.335Z,7.58
2019-03-23T07:05:15.685Z,7.51
2019-03-23T07:07:45.122Z,7.75
2019-03-23T07:10:14.914Z,7.66
2019-03-23T07:12:44.226Z,7.63
2019-03-23T07:15:20.115Z,7.64
2019-03-23T07:17:45.133Z,7.62
2019-03-23T07:20:15.028Z,7.64
2019-03-23T07:22:44.324Z,7.66
2019-03-23T07:25:13.786Z,7.68
2019-03-23T07:27:43.153Z,7.59
2019-03-23T07:30:15.363Z,7.65
2019-03-23T07:32:44.800Z,7.74
2019-03-23T07:35:14.975Z,7.64
2019-03-23T07:37:44.289Z,7.65
2019-03-23T07:40:14.442Z,7.63
2019-03-23T07:42:43.761Z,7.60
2019-03-23T07:45:15.893Z,7.72
2019-03-23T07:47:45.220Z,7.68
2019-03-23T07:50:16.011Z,7.68
2019-03-23T07:52:45.712Z,7.88
2019-03-23T07:55:17.758Z,7.86
2019-03-23T07:57:47.169Z,8.11
2019-03-23T08:00:21.312Z,8.03
2019-03-23T08:02:51.020Z,7.96
2019-03-23T08:05:20.618Z,7.94
2019-03-23T08:07:49.922Z,8.00
2019-03-23T08:10:33.604Z,8.32
2019-03-23T08:13:03.337Z,8.26
2019-03-23T08:15:33.262Z,8.16
2019-03-23T08:18:02.655Z,8.34
2019-03-23T08:20:32.169Z,8.20
2019-03-23T08:23:02.491Z,8.22
2019-03-23T08:25:31.784Z,8.18
2019-03-23T08:28:01.172Z,8.21
2019-03-23T08:30:31.738Z,8.19
2019-03-23T08:33:01.131Z,8.20
2019-03-23T08:35:31.176Z,8.26
2019-03-23T08:38:00.726Z,8.42
2019-03-23T08:40:30.343Z,8.33
2019-03-23T08:42:59.649Z,8.32
2019-03-23T08:45:29.358Z,8.34
2019-03-23T08:47:58.650Z,8.40
2019-03-23T08:50:28.067Z,8.54
2019-03-23T08:52:57.540Z,8.43
2019-03-23T08:55:26.867Z,8.50
2019-03-23T08:57:56.373Z,8.48
2019-03-23T09:00:25.961Z,8.41
2019-03-23T09:02:55.618Z,8.48
2019-03-23T09:05:25.054Z,8.52
2019-03-23T09:07:54.520Z,8.44
2019-03-23T09:10:23.825Z,8.59
2019-03-23T09:12:53.324Z,8.96
2019-03-23T09:15:22.660Z,8.85
2019-03-23T09:17:51.982Z,8.89
2019-03-23T09:20:21.347Z,9.23
2019-03-23T09:22:50.665Z,9.04
2019-03-23T09:25:20.008Z,8.89
2019-03-23T09:27:49.343Z,8.85
2019-03-23T09:30:19.124Z,9.00
2019-03-23T09:32:48.578Z,9.22
2019-03-23T09:35:17.886Z,9.36
2019-03-23T09:37:47.355Z,8.97
2019-03-23T09:40:16.930Z,9.10
2019-03-23T09:42:46.484Z,8.82
2019-03-23T09:45:15.907Z,8.87
2019-03-23T09:47:45.239Z,8.82
2019-03-23T09:50:14.684Z,8.84
2019-03-23T09:52:44.087Z,8.78
2019-03-23T09:55:13.745Z,8.88
2019-03-23T09:57:43.392Z,9.01
2019-03-23T10:00:13.570Z,9.16
2019-03-23T10:02:43.110Z,9.13
2019-03-23T10:05:12.475Z,9.30
2019-03-23T10:07:41.880Z,9.25
2019-03-23T10:10:21.223Z,9.55
2019-03-23T10:12:42.959Z,9.55
2019-03-23T10:15:12.415Z,9.46
2019-03-23T10:17:41.952Z,9.49
2019-03-23T10:20:12.198Z,9.76
2019-03-23T10:22:41.823Z,9.84
2019-03-23T10:25:11.348Z,9.98
2019-03-23T10:27:40.672Z,10.04
2019-03-23T10:30:11.549Z,10.24
2019-03-23T10:32:41.086Z,10.04
2019-03-23T10:35:11.028Z,10.02
2019-03-23T10:37:40.764Z,10.06
2019-03-23T10:40:11.304Z,10.18
2019-03-23T10:42:43.226Z,10.20
2019-03-23T10:45:14.108Z,10.05
2019-03-23T10:47:43.591Z,10.29
2019-03-23T10:50:14.738Z,10.37
2019-03-23T10:52:44.279Z,10.39
2019-03-23T10:55:13.811Z,10.51
2019-03-23T10:57:43.139Z,10.24
2019-03-23T11:00:13.847Z,10.28
2019-03-23T11:02:43.716Z,10.72
2019-03-23T11:05:13.620Z,10.59
2019-03-23T11:07:43.503Z,10.53
2019-03-23T11:10:14.189Z,10.43
2019-03-23T11:12:43.862Z,10.93
2019-03-23T11:15:13.438Z,10.95
2019-03-23T11:17:43.196Z,10.77
2019-03-23T11:20:15.474Z,10.99
2019-03-23T11:22:45.070Z,10.98
2019-03-23T11:25:15.269Z,11.17
2019-03-23T11:27:45.083Z,11.18
2019-03-23T11:30:15.110Z,11.15
2019-03-23T11:32:44.927Z,11.00
2019-03-23T11:35:14.377Z,11.05
2019-03-23T11:37:44.745Z,11.03
2019-03-23T11:40:14.332Z,11.09
2019-03-23T11:42:49.749Z,10.87
2019-03-23T11:45:15.405Z,10.79
2019-03-23T11:47:45.045Z,10.87
2019-03-23T11:50:14.628Z,10.57
2019-03-23T11:52:44.328Z,10.88
2019-03-23T11:55:13.769Z,11.18
2019-03-23T11:57:43.087Z,11.08
2019-03-23T12:00:14.891Z,11.12
2019-03-23T12:02:44.198Z,11.19
2019-03-23T12:05:14.934Z,10.92
2019-03-23T12:07:44.235Z,11.10
2019-03-23T12:10:14.813Z,11.15
2019-03-23T12:12:44.188Z,11.19
2019-03-23T12:15:14.653Z,11.19
2019-03-23T12:17:43.952Z,11.22
2019-03-23T12:20:13.802Z,10.81
2019-03-23T12:22:43.196Z,11.12
2019-03-23T12:25:12.563Z,10.85
2019-03-23T12:27:41.873Z,11.25
2019-03-23T12:30:16.556Z,11.20
2019-03-23T12:32:45.964Z,11.06
2019-03-23T12:35:15.518Z,11.19
2019-03-23T12:37:44.804Z,11.24
2019-03-23T12:40:14.604Z,11.37
2019-03-23T12:42:43.928Z,11.38
2019-03-23T12:45:14.367Z,11.38
2019-03-23T12:47:43.662Z,11.53
2019-03-23T12:50:14.410Z,11.22
2019-03-23T12:52:43.703Z,11.54
2019-03-23T12:55:13.096Z,11.53
2019-03-23T12:57:42.428Z,11.35
2019-03-23T13:00:14.878Z,11.17
2019-03-23T13:02:44.330Z,10.99
2019-03-23T13:05:13.880Z,11.04
2019-03-23T13:07:43.291Z,10.93
2019-03-23T13:10:14.348Z,10.86
2019-03-23T13:12:43.753Z,11.04
2019-03-23T13:15:14.804Z,11.07
2019-03-23T13:17:44.503Z,11.00
2019-03-23T13:20:14.539Z,10.99
2019-03-23T13:22:44.273Z,10.99
2019-03-23T13:25:13.816Z,11.21
2019-03-23T13:27:43.688Z,11.25
2019-03-23T13:30:17.743Z,11.22
2019-03-23T13:32:47.620Z,11.43
2019-03-23T13:35:17.106Z,11.50
2019-03-23T13:37:46.495Z,11.64
2019-03-23T13:40:16.076Z,11.57
2019-03-23T13:42:45.405Z,11.78
2019-03-23T13:45:15.480Z,11.75
2019-03-23T13:47:44.818Z,11.65
2019-03-23T13:50:16.170Z,12.01
2019-03-23T13:52:45.531Z,11.71
2019-03-23T13:55:29.277Z,11.81
2019-03-23T13:58:10.658Z,11.99
2019-03-23T14:00:40.076Z,12.10
2019-03-23T14:03:09.803Z,12.13
2019-03-23T14:05:39.143Z,11.82
2019-03-23T14:08:08.567Z,11.88
2019-03-23T14:10:37.987Z,12.10
2019-03-23T14:13:07.422Z,12.15
2019-03-23T14:15:36.729Z,12.33
2019-03-23T14:18:06.195Z,12.23
2019-03-23T14:20:35.827Z,12.05
2019-03-23T14:23:05.222Z,12.43
2019-03-23T14:25:34.670Z,12.56
2019-03-23T14:28:04.047Z,12.85
2019-03-23T14:30:33.345Z,12.60
2019-03-23T14:33:02.972Z,12.46
2019-03-23T14:35:32.294Z,12.45
2019-03-23T14:38:01.638Z,12.32
2019-03-23T14:40:30.888Z,12.45
2019-03-23T14:43:00.223Z,12.67
2019-03-23T14:45:29.529Z,12.44
2019-03-23T14:47:59.229Z,12.52
2019-03-23T14:50:28.529Z,12.73
2019-03-23T14:52:58.244Z,12.52
2019-03-23T14:55:27.566Z,12.34
2019-03-23T14:57:56.862Z,12.54
2019-03-23T15:00:30.514Z,12.52
2019-03-23T15:03:00.452Z,12.66
2019-03-23T15:05:30.061Z,12.61
2019-03-23T15:07:59.536Z,12.48
2019-03-23T15:10:28.865Z,12.93
2019-03-23T15:12:58.387Z,12.77
2019-03-23T15:15:28.019Z,12.72
2019-03-23T15:17:57.320Z,12.86
2019-03-23T15:20:26.646Z,12.97
2019-03-23T15:22:56.132Z,12.93
2019-03-23T15:25:25.721Z,13.24
2019-03-23T15:27:55.304Z,12.98
2019-03-23T15:30:24.753Z,13.10
2019-03-23T15:32:54.051Z,13.37
2019-03-23T15:35:23.599Z,13.34
2019-03-23T15:37:53.095Z,12.75
2019-03-23T15:40:22.481Z,12.70
2019-03-23T15:42:52.051Z,13.19
2019-03-23T15:45:21.586Z,13.09
2019-03-23T15:47:51.122Z,13.14
2019-03-23T15:50:20.730Z,12.57
2019-03-23T15:52:50.368Z,12.50
2019-03-23T15:55:19.824Z,12.69
2019-03-23T15:57:49.276Z,12.43
2019-03-23T16:00:19.002Z,12.63
2019-03-23T16:02:48.285Z,12.69
2019-03-23T16:05:17.894Z,12.55
2019-03-23T16:07:47.394Z,12.39
2019-03-23T16:10:16.945Z,12.98
2019-03-23T16:12:46.391Z,12.70
2019-03-23T16:15:16.432Z,12.56
2019-03-23T16:17:45.916Z,12.29
2019-03-23T16:20:16.939Z,12.42
2019-03-23T16:22:46.248Z,12.15
2019-03-23T16:25:15.878Z,12.16
2019-03-23T16:27:45.570Z,12.46
2019-03-23T16:30:17.918Z,12.36
2019-03-23T16:32:47.587Z,12.38
2019-03-23T16:35:18.690Z,12.20
2019-03-23T16:37:48.362Z,12.09
2019-03-23T16:40:17.896Z,12.12
2019-03-23T16:42:47.221Z,12.42
2019-03-23T16:45:16.706Z,12.31
2019-03-23T16:47:46.435Z,12.44
2019-03-23T16:50:15.868Z,12.49
2019-03-23T16:52:45.398Z,12.52
2019-03-23T16:55:15.034Z,12.54
2019-03-23T16:57:45.676Z,12.50
2019-03-23T17:00:16.305Z,12.33
2019-03-23T17:02:45.931Z,12.37
2019-03-23T17:05:15.292Z,12.21
2019-03-23T17:07:44.910Z,12.07
2019-03-23T17:10:15.001Z,12.11
2019-03-23T17:12:44.339Z,12.22
2019-03-23T17:15:13.783Z,12.26
2019-03-23T17:17:43.353Z,12.24
2019-03-23T17:20:13.233Z,12.24
2019-03-23T17:22:42.692Z,12.04
2019-03-23T17:25:12.203Z,11.93
2019-03-23T17:27:41.564Z,12.05
2019-03-23T17:30:11.897Z,12.11
2019-03-23T17:32:41.611Z,12.04
2019-03-23T17:35:11.437Z,11.98
2019-03-23T17:37:40.784Z,11.93
2019-03-23T17:40:10.538Z,11.90
2019-03-23T17:42:40.015Z,11.88
2019-03-23T17:45:09.994Z,11.78
2019-03-23T17:47:39.467Z,11.74
2019-03-23T17:50:10.504Z,11.74
2019-03-23T17:52:40.038Z,11.63
2019-03-23T17:55:09.498Z,11.57
2019-03-23T17:57:38.881Z,11.41
2019-03-23T18:00:09.144Z,11.21
2019-03-23T18:02:38.731Z,11.21
2019-03-23T18:05:08.863Z,11.12
2019-03-23T18:07:38.836Z,11.03
2019-03-23T18:10:09.169Z,11.21
2019-03-23T18:12:38.786Z,11.40
2019-03-23T18:15:10.209Z,11.27
2019-03-23T18:17:39.512Z,11.10
2019-03-23T18:20:09.254Z,11.19
2019-03-23T18:22:38.689Z,11.36
2019-03-23T18:25:09.168Z,11.19
2019-03-23T18:27:38.699Z,11.25
2019-03-23T18:30:23.190Z,11.15
2019-03-23T18:32:52.637Z,11.14
2019-03-23T18:35:22.352Z,11.08
2019-03-23T18:37:51.694Z,10.99
2019-03-23T18:40:21.106Z,11.08
2019-03-23T18:42:50.686Z,11.05
2019-03-23T18:45:20.013Z,11.02
2019-03-23T18:47:49.420Z,11.04
2019-03-23T18:50:18.864Z,10.86
2019-03-23T18:52:48.174Z,10.82
2019-03-23T18:55:18.783Z,10.81
2019-03-23T18:57:48.083Z,10.90
2019-03-23T19:00:41.223Z,10.57
2019-03-23T19:03:11.354Z,10.78
2019-03-23T19:05:41.101Z,10.68
2019-03-23T19:08:11.920Z,10.64
2019-03-23T19:10:41.622Z,10.66
2019-03-23T19:13:11.371Z,10.72
2019-03-23T19:15:40.836Z,10.73
2019-03-23T19:18:10.259Z,10.72
2019-03-23T19:20:39.557Z,10.67
2019-03-23T19:23:08.909Z,10.55
2019-03-23T19:25:38.476Z,10.50
2019-03-23T19:28:07.860Z,10.49
2019-03-23T19:30:37.150Z,10.60
2019-03-23T19:33:06.804Z,10.59
2019-03-23T19:35:36.226Z,10.49
2019-03-23T19:38:05.508Z,10.34
2019-03-23T19:40:34.934Z,10.38
2019-03-23T19:43:04.772Z,10.34
2019-03-23T19:45:34.284Z,10.27
2019-03-23T19:48:04.361Z,10.22
2019-03-23T19:50:33.661Z,10.17
2019-03-23T19:53:02.996Z,10.12
2019-03-23T19:55:32.395Z,10.10
2019-03-23T19:58:02.376Z,10.15
2019-03-23T20:00:31.685Z,10.06
2019-03-23T20:03:01.214Z,10.06
2019-03-23T20:05:30.705Z,9.99
2019-03-23T20:08:00.280Z,10.02
2019-03-23T20:10:30.119Z,10.09
2019-03-23T20:12:59.858Z,10.00
2019-03-23T20:15:30.221Z,9.91
2019-03-23T20:17:59.731Z,9.96
2019-03-23T20:20:29.212Z,10.03
2019-03-23T20:22:58.735Z,9.93
2019-03-23T20:25:28.212Z,9.96
2019-03-23T20:27:57.909Z,10.09
2019-03-23T20:30:27.486Z,10.11
2019-03-23T20:32:56.887Z,10.05
2019-03-23T20:35:26.581Z,10.00
2019-03-23T20:37:56.100Z,9.98
2019-03-23T20:40:25.420Z,9.91
2019-03-23T20:42:55.334Z,9.88
2019-03-23T20:45:27.814Z,9.84
2019-03-23T20:47:57.962Z,9.79
2019-03-23T20:50:28.055Z,9.94
2019-03-23T20:52:57.805Z,10.00
2019-03-23T20:55:29.435Z,10.11
2019-03-23T20:57:59.039Z,9.98
2019-03-23T21:00:28.510Z,9.95
2019-03-23T21:02:57.907Z,9.85
2019-03-23T21:05:33.922Z,9.92
2019-03-23T21:07:58.993Z,9.74
2019-03-23T21:10:28.788Z,9.83
2019-03-23T21:12:58.144Z,9.70
2019-03-23T21:15:28.218Z,9.80
2019-03-23T21:17:57.620Z,9.82
2019-03-23T21:20:27.131Z,9.76
2019-03-23T21:22:56.852Z,9.73
2019-03-23T21:25:26.164Z,9.66
2019-03-23T21:27:55.498Z,9.55
2019-03-23T21:30:24.987Z,9.74
2019-03-23T21:32:54.286Z,9.72
2019-03-23T21:35:23.785Z,9.88
2019-03-23T21:37:53.075Z,9.76
2019-03-23T21:40:22.423Z,9.79
2019-03-23T21:42:51.742Z,9.90
2019-03-23T21:45:21.073Z,9.90
2019-03-23T21:47:50.575Z,9.75
2019-03-23T21:50:20.108Z,9.84
2019-03-23T21:52:49.580Z,9.78
2019-03-23T21:55:18.900Z,9.68
2019-03-23T21:57:48.368Z,9.65
2019-03-23T22:00:32.624Z,9.62
2019-03-23T22:03:01.953Z,9.67
2019-03-23T22:05:31.271Z,9.69
2019-03-23T22:08:00.707Z,9.55
2019-03-23T22:10:30.113Z,9.55
2019-03-23T22:12:59.475Z,9.43
2019-03-23T22:15:30.524Z,9.41
2019-03-23T22:18:00.010Z,9.25
2019-03-23T22:20:29.383Z,9.25
2019-03-23T22:22:58.914Z,9.24
2019-03-23T22:25:28.385Z,8.94
2019-03-23T22:27:57.825Z,8.94
2019-03-23T22:30:27.159Z,8.69
2019-03-23T22:32:56.488Z,8.90
2019-03-23T22:35:26.014Z,8.90
2019-03-23T22:37:55.338Z,8.76
2019-03-23T22:40:24.632Z,8.79
2019-03-23T22:42:54.131Z,8.87
2019-03-23T22:45:23.603Z,8.62
2019-03-23T22:47:53.010Z,8.53
2019-03-23T22:50:22.437Z,8.46
2019-03-23T22:52:51.718Z,8.46
2019-03-23T22:55:21.074Z,8.55
2019-03-23T22:57:50.404Z,8.49
2019-03-23T23:00:22.206Z,8.27
2019-03-23T23:02:51.646Z,8.42
2019-03-23T23:05:20.971Z,8.39
2019-03-23T23:07:50.283Z,8.34
2019-03-23T23:10:19.706Z,8.28
2019-03-23T23:12:49.034Z,8.22
2019-03-23T23:15:18.348Z,8.18
2019-03-23T23:17:47.673Z,8.18
2019-03-23T23:20:17.059Z,8.06
2019-03-23T23:22:46.385Z,7.93
2019-03-23T23:25:15.681Z,7.80
2019-03-23T23:27:45.003Z,7.93
2019-03-23T23:30:15.274Z,7.88
2019-03-23T23:32:44.579Z,7.82
2019-03-23T23:35:14.243Z,7.88
2019-03-23T23:37:43.533Z,8.02
2019-03-23T23:40:13.294Z,7.91
2019-03-23T23:42:42.583Z,7.90
2019-03-23T23:45:15.643Z,7.71
2019-03-23T23:47:43.472Z,7.61
2019-03-23T23:50:13.521Z,7.70
2019-03-23T23:52:42.889Z,7.63
2019-03-23T23:55:13.750Z,7.40
2019-03-23T23:57:43.368Z,7.45
